Time;durP1;ratioP1;P1;durP2;ratioP2;P2;SDS_P1;SDS_P2;PMS_P1;PMS_P2;Temp;Humidity;BMP_temperature;BMP_pressure;BME280_temperature;BME280_humidity;BME280_pressure;Samples;Min_cycle;Max_cycle;Signal;HPM_P1;HPM_P2
2023/09/13 00:02:04;;;;;;;10.63;6.07;;;;;;;16.33;100.00;97547.66;5154101;27;20113;-70
2023/09/13 00:04:29;;;;;;;13.95;6.00;;;;;;;16.27;100.00;97547.19;5136504;27;20026;-71
2023/09/13 00:06:55;;;;;;;13.27;6.82;;;;;;;16.29;100.00;97549.75;5155301;27;20026;-71
2023/09/13 00:09:20;;;;;;;10.75;6.18;;;;;;;16.28;100.00;97543.50;5153891;27;20023;-71
2023/09/13 00:11:48;;;;;;;10.10;6.07;;;;;;;16.23;100.00;97543.03;5155018;27;20078;-71
2023/09/13 00:14:13;;;;;;;13.23;6.22;;;;;;;16.18;100.00;97557.91;5153909;27;20022;-71
2023/09/13 00:16:39;;;;;;;12.93;6.22;;;;;;;16.19;100.00;97555.06;5153569;27;20049;-71
2023/09/13 00:19:06;;;;;;;12.98;6.22;;;;;;;16.14;100.00;97551.06;5153956;27;20034;-71
2023/09/13 00:21:32;;;;;;;12.45;6.32;;;;;;;15.97;100.00;97554.28;5153426;27;20023;-71
2023/09/13 00:23:58;;;;;;;13.77;6.13;;;;;;;15.97;100.00;97543.50;5155101;27;20046;-71
2023/09/13 00:26:24;;;;;;;14.93;7.13;;;;;;;15.95;100.00;97550.88;5153430;27;20018;-71
2023/09/13 00:28:50;;;;;;;14.68;6.90;;;;;;;15.98;100.00;97548.78;5154520;27;20027;-72
2023/09/13 00:31:16;;;;;;;9.25;6.63;;;;;;;16.04;100.00;97550.97;5153353;27;20019;-72
2023/09/13 00:33:41;;;;;;;16.92;6.82;;;;;;;16.06;100.00;97540.03;5153305;27;20105;-71
2023/09/13 00:36:06;;;;;;;10.93;6.57;;;;;;;15.99;100.00;97533.47;5154865;27;20023;-71
2023/09/13 00:38:32;;;;;;;18.55;6.68;;;;;;;16.01;100.00;97544.97;5154087;27;20358;-71
2023/09/13 00:40:58;;;;;;;14.82;6.82;;;;;;;15.96;100.00;97542.69;5154440;27;20027;-72
2023/09/13 00:43:24;;;;;;;13.32;6.38;;;;;;;15.98;100.00;97540.69;5154427;27;20118;-72
2023/09/13 00:45:50;;;;;;;12.25;6.28;;;;;;;15.91;100.00;97544.00;5154237;27;20027;-72
2023/09/13 00:48:17;;;;;;;14.45;6.70;;;;;;;15.87;100.00;97550.69;5135855;27;20083;-71
2023/09/13 00:50:43;;;;;;;11.38;6.40;;;;;;;15.92;100.00;97551.13;5135746;27;20015;-71
2023/09/13 00:53:09;;;;;;;15.77;6.97;;;;;;;15.81;100.00;97553.88;5153393;27;20026;-72
2023/09/13 00:55:36;;;;;;;15.77;6.78;;;;;;;15.76;100.00;97551.56;5152787;27;20091;-71
2023/09/13 00:58:04;;;;;;;20.50;6.63;;;;;;;15.67;100.00;97547.78;5152908;27;20030;-71
2023/09/13 01:00:32;;;;;;;10.60;6.72;;;;;;;15.71;100.00;97548.38;5154063;27;20050;-72
2023/09/13 01:02:58;;;;;;;10.95;6.30;;;;;;;15.66;100.00;97548.75;5135534;27;20023;-71
2023/09/13 01:05:24;;;;;;;12.63;6.15;;;;;;;15.67;100.00;97549.63;5154164;27;20042;-71
2023/09/13 01:07:49;;;;;;;14.88;6.53;;;;;;;15.67;100.00;97547.78;5152638;27;20069;-72
2023/09/13 01:10:15;;;;;;;8.88;6.28;;;;;;;15.63;100.00;97550.84;5153970;27;20022;-72
2023/09/13 01:12:40;;;;;;;11.98;6.07;;;;;;;15.68;100.00;97552.19;5152573;27;20498;-72
2023/09/13 01:15:07;;;;;;;14.20;6.53;;;;;;;15.64;100.00;97545.34;5152475;27;20110;-72
2023/09/13 01:17:41;;;;;;;12.50;6.45;;;;;;;15.62;100.00;97547.31;5135182;27;20030;-70
2023/09/13 01:20:14;;;;;;;14.05;6.65;;;;;;;15.63;100.00;97546.31;5154076;27;20037;-69
2023/09/13 01:23:01;;;;;;;;;;;;;;;15.59;100.00;97550.25;5153030;27;20066;-69
2023/09/13 01:25:52;;;;;;;16.10;6.53;;;;;;;15.46;100.00;97560.28;5152331;27;19915;-70
2023/09/13 01:28:40;;;;;;;12.05;6.45;;;;;;;15.34;100.00;97558.59;5129065;27;20421;-70
2023/09/13 01:31:07;;;;;;;11.40;6.40;;;;;;;15.37;100.00;97544.88;5152211;27;20028;-69
2023/09/13 01:33:33;;;;;;;12.88;6.20;;;;;;;15.41;100.00;97545.47;5134683;27;20053;-69
2023/09/13 01:35:59;;;;;;;15.80;6.35;;;;;;;15.40;100.00;97551.84;5152311;27;20042;-70
2023/09/13 01:38:24;;;;;;;11.60;5.90;;;;;;;15.32;100.00;97547.06;5151874;27;20023;-69
2023/09/13 01:40:52;;;;;;;10.60;6.00;;;;;;;15.26;100.00;97555.63;5152102;27;20405;-69
2023/09/13 01:43:20;;;;;;;10.65;6.30;;;;;;;15.21;100.00;97557.88;5152465;27;20018;-69
2023/09/13 01:45:47;;;;;;;12.82;6.45;;;;;;;15.18;100.00;97552.72;5134521;27;20083;-70
2023/09/13 01:48:13;;;;;;;13.90;6.40;;;;;;;15.18;100.00;97555.41;5152024;27;20026;-70
2023/09/13 01:50:38;;;;;;;10.15;6.35;;;;;;;15.07;100.00;97550.03;5151530;27;20023;-69
2023/09/13 01:53:04;;;;;;;13.23;6.22;;;;;;;15.08;100.00;97554.44;5152106;27;20030;-70
2023/09/13 01:55:33;;;;;;;16.98;7.03;;;;;;;15.09;100.00;97550.75;5125807;27;20079;-69
2023/09/13 01:57:58;;;;;;;18.85;6.85;;;;;;;15.03;100.00;97545.88;5151221;27;20071;-69
2023/09/13 02:00:24;;;;;;;16.88;6.72;;;;;;;14.92;100.00;97544.00;5151615;27;20105;-69
2023/09/13 02:02:49;;;;;;;10.95;6.30;;;;;;;14.96;100.00;97545.50;5134188;27;20018;-69
2023/09/13 02:05:15;;;;;;;13.15;6.70;;;;;;;14.98;100.00;97556.16;5153092;27;20607;-68
2023/09/13 02:07:40;;;;;;;13.90;7.07;;;;;;;15.05;100.00;97555.53;5151391;27;20018;-69
2023/09/13 02:10:06;;;;;;;18.90;7.03;;;;;;;15.06;100.00;97561.78;5152849;27;20030;-68
2023/09/13 02:12:31;;;;;;;13.18;6.10;;;;;;;15.12;100.00;97559.47;5134065;27;20477;-69
2023/09/13 02:14:57;;;;;;;12.63;6.25;;;;;;;15.14;100.00;97556.63;5151261;27;20395;-69
2023/09/13 02:17:23;;;;;;;12.80;6.60;;;;;;;15.14;100.00;97556.63;5151345;27;20050;-69
2023/09/13 02:19:51;;;;;;;9.25;5.60;;;;;;;15.14;100.00;97552.09;5151070;27;20031;-69
2023/09/13 02:22:17;;;;;;;20.92;10.45;;;;;;;15.15;100.00;97552.97;5151742;27;20405;-70
2023/09/13 02:24:42;;;;;;;8.93;6.38;;;;;;;15.14;100.00;97554.78;5151426;27;20025;-70
2023/09/13 02:27:08;;;;;;;28.23;11.43;;;;;;;15.15;100.00;97550.28;5130386;27;20460;-71
2023/09/13 02:29:34;;;;;;;13.15;6.70;;;;;;;15.09;100.00;97556.16;5132143;27;20094;-70
2023/09/13 02:31:59;;;;;;;10.50;6.07;;;;;;;15.06;100.00;97551.88;5149690;27;20365;-69
2023/09/13 02:34:25;;;;;;;15.45;6.55;;;;;;;15.05;100.00;97554.66;5151302;27;20456;-70
2023/09/13 02:36:50;;;;;;;16.05;6.45;;;;;;;14.93;100.00;97548.44;5131744;27;20507;-69
2023/09/13 02:39:35;;;;;;;21.65;9.82;;;;;;;15.00;100.00;97555.06;5144916;27;20045;-69
2023/09/13 02:42:05;;;;;;;12.07;6.97;;;;;;;14.97;100.00;97549.03;5151953;27;20023;-69
2023/09/13 02:44:31;;;;;;;15.13;7.55;;;;;;;14.92;100.00;97546.69;5151153;27;20014;-69
2023/09/13 02:46:57;;;;;;;17.48;6.85;;;;;;;14.89;100.00;97543.44;5150859;27;20033;-71
2023/09/13 02:49:24;;;;;;;18.20;7.25;;;;;;;14.89;100.00;97549.63;5151072;27;20109;-69
2023/09/13 02:51:51;;;;;;;9.23;6.50;;;;;;;14.86;100.00;97547.19;5142136;27;20031;-69
2023/09/13 02:54:17;;;;;;;19.33;7.35;;;;;;;14.78;100.00;97546.09;5126918;27;20410;-69
2023/09/13 02:56:42;;;;;;;15.77;6.85;;;;;;;14.83;100.00;97552.81;5151962;27;20026;-70
2023/09/13 02:59:08;;;;;;;15.50;6.93;;;;;;;14.88;100.00;97557.84;5150738;27;20022;-68
2023/09/13 03:01:33;;;;;;;20.88;7.18;;;;;;;14.84;100.00;97556.38;5152717;27;20507;-68
2023/09/13 03:03:59;;;;;;;12.10;7.10;;;;;;;14.84;100.00;97562.63;5136685;27;20038;-69
2023/09/13 03:06:24;;;;;;;24.20;7.47;;;;;;;14.76;100.00;97558.81;5149251;27;20408;-69
2023/09/13 03:08:50;;;;;;;11.27;6.95;;;;;;;14.71;100.00;97555.63;5156186;27;20050;-69
2023/09/13 03:11:18;;;;;;;13.65;6.80;;;;;;;14.66;100.00;97558.69;5156045;27;20466;-68
2023/09/13 03:13:44;;;;;;;15.82;6.97;;;;;;;14.63;100.00;97564.31;5155065;27;20031;-69
2023/09/13 03:16:16;;;;;;;18.23;9.07;;;;;;;14.74;100.00;97567.00;5154694;27;20133;-69
2023/09/13 03:18:42;;;;;;;17.15;7.15;;;;;;;14.70;100.00;97568.25;5137610;27;20117;-69
2023/09/13 03:21:09;;;;;;;18.85;9.02;;;;;;;14.70;100.00;97568.25;5154680;27;20039;-69
2023/09/13 03:23:40;;;;;;;16.67;8.95;;;;;;;14.70;100.00;97575.47;5137464;27;20115;-69
2023/09/13 03:26:12;;;;;;;24.13;11.82;;;;;;;14.69;100.00;97577.28;5154724;27;20030;-69
2023/09/13 03:28:38;;;;;;;28.08;9.35;;;;;;;14.62;100.00;97574.22;5156159;27;20023;-69
2023/09/13 03:31:17;;;;;;;21.27;8.45;;;;;;;14.50;100.00;97580.56;5155833;27;20019;-70
2023/09/13 03:33:44;;;;;;;37.90;8.65;;;;;;;14.51;100.00;97579.59;5154802;27;20427;-70
2023/09/13 03:36:10;;;;;;;33.08;12.75;;;;;;;14.32;100.00;97587.31;5155711;27;20023;-68
2023/09/13 03:38:39;;;;;;;25.55;10.30;;;;;;;14.26;100.00;97576.16;5154723;27;20018;-69
2023/09/13 03:41:09;;;;;;;37.83;10.40;;;;;;;14.14;100.00;97588.72;5154304;27;20097;-70
2023/09/13 03:43:34;;;;;;;21.77;8.80;;;;;;;14.10;100.00;97582.69;5136999;27;20057;-69
2023/09/13 03:46:00;;;;;;;21.52;9.23;;;;;;;14.10;100.00;97577.31;5155719;27;20023;-69
2023/09/13 03:48:25;;;;;;;23.33;9.55;;;;;;;14.13;100.00;97582.47;5136684;27;20091;-68
2023/09/13 03:50:51;;;;;;;16.25;7.55;;;;;;;14.16;100.00;97588.59;5155554;27;20031;-69
2023/09/13 03:53:17;;;;;;;14.80;6.72;;;;;;;14.16;100.00;97586.75;5136601;27;20054;-68
2023/09/13 03:55:43;;;;;;;13.30;6.80;;;;;;;14.13;100.00;97587.00;5154281;27;20369;-69
2023/09/13 03:58:08;;;;;;;16.98;7.57;;;;;;;14.12;100.00;97585.25;5153989;27;20042;-72
2023/09/13 04:00:37;;;;;;;23.35;11.25;;;;;;;14.15;100.00;97590.41;5154207;27;20022;-71
2023/09/13 04:03:03;;;;;;;20.30;8.30;;;;;;;14.18;100.00;97589.34;5155387;27;20110;-70
2023/09/13 04:05:29;;;;;;;38.90;8.57;;;;;;;14.11;100.00;97594.31;5154939;27;20489;-69
2023/09/13 04:07:55;;;;;;;21.70;9.55;;;;;;;14.04;100.00;97590.38;5153938;27;20026;-70
2023/09/13 04:10:21;;;;;;;23.98;8.90;;;;;;;14.12;100.00;97590.63;5134170;27;20041;-70
2023/09/13 04:12:46;;;;;;;21.73;9.60;;;;;;;14.03;100.00;97594.03;5149929;27;20502;-69
2023/09/13 04:15:12;;;;;;;25.23;8.60;;;;;;;14.12;100.00;97598.72;5153555;27;20036;-69
2023/09/13 04:17:37;;;;;;;24.92;9.43;;;;;;;14.15;100.00;97594.97;5153864;27;20019;-69
2023/09/13 04:20:03;;;;;;;15.55;7.80;;;;;;;14.22;100.00;97596.19;5154972;27;20035;-70
2023/09/13 04:22:30;;;;;;;17.08;7.38;;;;;;;14.22;100.00;97602.44;5136090;27;20549;-73
2023/09/13 04:24:56;;;;;;;27.10;8.77;;;;;;;14.32;100.00;97602.59;5136292;27;20031;-71
2023/09/13 04:27:22;;;;;;;19.10;7.85;;;;;;;14.33;100.00;97605.22;5153381;27;20093;-72
2023/09/13 04:29:48;;;;;;;21.92;8.07;;;;;;;14.40;100.00;97594.81;5153534;27;20022;-72
2023/09/13 04:32:13;;;;;;;24.23;9.68;;;;;;;14.48;100.00;97585.22;5153728;27;20402;-72
2023/09/13 04:34:39;;;;;;;12.63;7.20;;;;;;;14.55;100.00;97594.50;5153170;27;20026;-73
2023/09/13 04:37:05;;;;;;;18.10;7.50;;;;;;;14.59;100.00;97597.81;5153202;27;20021;-71
2023/09/13 04:39:34;;;;;;;21.65;7.43;;;;;;;14.49;100.00;97586.03;5135631;27;20015;-72
2023/09/13 04:42:00;;;;;;;14.55;6.75;;;;;;;14.56;100.00;97585.47;5153306;27;20034;-71
2023/09/13 04:44:28;;;;;;;20.42;7.57;;;;;;;14.67;100.00;97583.78;5135925;27;20019;-73
2023/09/13 04:46:54;;;;;;;17.38;7.60;;;;;;;14.65;100.00;97576.66;5136221;27;20034;-73
2023/09/13 04:49:20;;;;;;;17.77;8.88;;;;;;;14.72;100.00;97578.88;5153032;27;20037;-72
2023/09/13 04:51:45;;;;;;;14.50;7.70;;;;;;;14.85;100.00;97579.66;5152880;27;20105;-72
2023/09/13 04:54:11;;;;;;;27.85;10.50;;;;;;;14.88;100.00;97579.41;5139088;27;20104;-72
2023/09/13 04:56:37;;;;;;;23.70;8.43;;;;;;;15.08;100.00;97586.75;5133538;27;20029;-70
2023/09/13 04:59:03;;;;;;;21.05;7.45;;;;;;;15.23;100.00;97568.53;5149814;27;20023;-71
2023/09/13 05:01:28;;;;;;;15.48;7.20;;;;;;;15.40;100.00;97576.97;5152331;27;20034;-72
2023/09/13 05:03:54;;;;;;;22.65;8.20;;;;;;;15.49;100.00;97564.59;5152754;27;20023;-72
2023/09/13 05:06:20;;;;;;;27.25;8.20;;;;;;;15.62;100.00;97573.41;5154044;27;20087;-72
2023/09/13 05:08:45;;;;;;;21.48;8.93;;;;;;;15.78;100.00;97592.72;5153723;27;20026;-72
2023/09/13 05:11:11;;;;;;;20.08;8.75;;;;;;;15.87;100.00;97593.84;5152251;27;20470;-72
2023/09/13 05:13:39;;;;;;;24.85;10.18;;;;;;;15.96;100.00;97595.78;5152586;27;20383;-72
2023/09/13 05:16:05;;;;;;;31.95;11.75;;;;;;;16.11;100.00;97598.06;5153587;27;20039;-71
2023/09/13 05:18:30;;;;;;;25.55;10.13;;;;;;;16.21;100.00;97603.53;5139433;27;20106;-73
2023/09/13 05:20:56;;;;;;;15.82;8.77;;;;;;;16.25;100.00;97594.19;5148361;27;20477;-72
2023/09/13 05:23:21;;;;;;;24.15;9.05;;;;;;;16.27;100.00;97600.34;5151483;27;20445;-73
2023/09/13 05:25:51;;;;;;;22.15;8.60;;;;;;;16.35;100.00;97602.38;5151942;27;20018;-72
2023/09/13 05:28:16;;;;;;;15.68;9.02;;;;;;;16.50;100.00;97598.38;5135359;27;20026;-72
2023/09/13 05:30:46;;;;;;;40.38;11.70;;;;;;;16.70;100.00;97593.00;5152130;27;20022;-73
2023/09/13 05:33:11;;;;;;;20.38;9.07;;;;;;;16.96;100.00;97596.16;5147509;27;20110;-72
2023/09/13 05:35:37;;;;;;;18.90;9.02;;;;;;;17.87;100.00;97594.28;5153375;27;20050;-73
2023/09/13 05:38:03;;;;;;;24.33;9.57;;;;;;;19.65;100.00;97575.59;5152455;27;20370;-73
2023/09/13 05:40:29;;;;;;;35.90;9.70;;;;;;;21.28;100.00;97573.44;5153293;27;20118;-72
2023/09/13 05:42:55;;;;;;;24.35;8.75;;;;;;;22.34;100.00;97551.06;5153099;27;20482;-74
2023/09/13 05:45:23;;;;;;;19.38;8.70;;;;;;;22.93;97.04;97545.31;5151866;27;20026;-73
2023/09/13 05:47:49;;;;;;;27.52;9.55;;;;;;;23.78;91.19;97546.47;5134580;27;20034;-72
2023/09/13 05:50:14;;;;;;;24.33;9.43;;;;;;;24.31;84.29;97536.66;5134271;27;20015;-72
2023/09/13 05:52:40;;;;;;;32.50;16.85;;;;;;;25.17;79.23;97529.81;5151868;27;20093;-73
2023/09/13 05:55:07;;;;;;;24.77;10.23;;;;;;;25.77;72.38;97540.66;5134412;27;20027;-73
2023/09/13 05:57:33;;;;;;;36.15;8.95;;;;;;;25.89;70.26;97541.00;5151521;27;20026;-72
2023/09/13 05:59:58;;;;;;;19.52;7.25;;;;;;;25.90;68.51;97529.03;5134451;27;20175;-72
2023/09/13 06:02:24;;;;;;;14.93;6.70;;;;;;;25.79;69.60;97530.34;5151361;27;20549;-72
2023/09/13 06:04:49;;;;;;;37.85;8.27;;;;;;;25.84;69.76;97527.03;5151608;27;20034;-72
2023/09/13 06:07:15;;;;;;;26.05;7.50;;;;;;;26.61;65.74;97522.66;5134106;27;20027;-72
2023/09/13 06:09:40;;;;;;;22.70;6.88;;;;;;;27.25;62.62;97509.75;5151520;27;20386;-72
2023/09/13 06:12:06;;;;;;;13.20;6.68;;;;;;;27.41;60.68;97519.56;5151156;27;20023;-71
2023/09/13 06:14:32;;;;;;;35.22;8.10;;;;;;;27.97;58.02;97512.06;5133992;27;20014;-72
2023/09/13 06:16:58;;;;;;;21.55;7.68;;;;;;;28.02;57.13;97512.34;5134159;27;20142;-73
2023/09/13 06:19:23;;;;;;;9.60;5.32;;;;;;;28.61;54.22;97504.25;5150350;27;20022;-72
2023/09/13 06:21:51;;;;;;;11.27;5.15;;;;;;;28.67;53.58;97508.94;5151562;27;20123;-73
2023/09/13 06:24:16;;;;;;;10.43;5.45;;;;;;;28.65;53.46;97515.72;5152250;27;20038;-72
2023/09/13 06:26:42;;;;;;;19.00;6.28;;;;;;;28.91;53.23;97510.28;5151245;27;20023;-73
2023/09/13 06:29:09;;;;;;;14.75;5.88;;;;;;;29.65;51.21;97510.00;5152305;27;20446;-73
2023/09/13 06:31:34;;;;;;;25.35;8.75;;;;;;;30.09;49.72;97504.56;5151137;27;20489;-73
2023/09/13 06:34:01;;;;;;;24.77;7.60;;;;;;;30.41;48.52;97497.22;5151252;27;20023;-72
2023/09/13 06:36:26;;;;;;;22.58;6.90;;;;;;;30.70;48.21;97507.69;5150908;27;20033;-72
2023/09/13 06:38:52;;;;;;;27.25;7.63;;;;;;;30.97;47.23;97502.84;5151117;27;20022;-72
2023/09/13 06:41:17;;;;;;;57.58;10.20;;;;;;;31.00;47.65;97499.63;5150708;27;20126;-73
2023/09/13 06:43:44;;;;;;;14.15;6.38;;;;;;;30.84;46.78;97508.41;5152275;27;20053;-73
2023/09/13 06:46:10;;;;;;;22.75;6.47;;;;;;;31.02;46.19;97503.00;5150800;27;20034;-73
2023/09/13 06:48:36;;;;;;;41.33;6.00;;;;;;;30.95;45.83;97499.44;5150554;27;20106;-72
2023/09/13 06:51:02;;;;;;;27.83;9.85;;;;;;;31.27;45.69;97506.63;5152328;27;20470;-73
2023/09/13 06:53:27;;;;;;;12.68;5.65;;;;;;;31.11;44.75;97509.94;5150755;27;20027;-72
2023/09/13 06:55:56;;;;;;;11.25;4.78;;;;;;;31.12;44.97;97511.63;5133726;27;20041;-72
2023/09/13 06:58:22;;;;;;;14.00;4.43;;;;;;;31.43;44.18;97503.28;5152102;27;20035;-72
2023/09/13 07:00:48;;;;;;;13.35;5.50;;;;;;;32.25;43.02;97495.56;5150725;27;20033;-73
2023/09/13 07:03:13;;;;;;;13.80;5.50;;;;;;;32.35;42.69;97496.72;5150811;27;20366;-73
2023/09/13 07:05:39;;;;;;;15.02;5.60;;;;;;;32.95;41.39;97497.53;5150737;27;20034;-74
2023/09/13 07:08:04;;;;;;;14.75;5.40;;;;;;;33.25;40.48;97492.78;5152390;27;20027;-74
2023/09/13 07:10:30;;;;;;;10.73;5.93;;;;;;;32.96;40.84;97496.47;5150401;27;20478;-74
2023/09/13 07:12:57;;;;;;;18.55;7.13;;;;;;;33.48;40.11;97486.41;5150588;27;20022;-72
2023/09/13 07:15:23;;;;;;;18.00;7.60;;;;;;;34.08;39.40;97494.47;5150471;27;20030;-72
2023/09/13 07:17:48;;;;;;;18.75;9.43;;;;;;;33.37;40.29;97490.06;5151717;27;20369;-72
2023/09/13 07:20:14;;;;;;;16.73;10.23;;;;;;;33.69;39.83;97494.16;5150472;27;20030;-72
2023/09/13 07:22:39;;;;;;;13.10;7.28;;;;;;;33.25;39.96;97490.03;5141456;27;20026;-73
2023/09/13 07:25:06;;;;;;;18.85;8.25;;;;;;;34.30;38.91;97495.53;5131071;27;20030;-73
2023/09/13 07:28:00;;;;;;;19.08;6.70;;;;;;;34.60;38.15;97493.41;5148063;27;20030;-75
2023/09/13 07:30:27;;;;;;;10.15;5.10;;;;;;;34.42;38.16;97493.56;5124545;27;20401;-73
2023/09/13 07:33:04;;;;;;;16.73;6.18;;;;;;;35.13;37.78;97492.16;5150488;27;20019;-74
2023/09/13 07:35:29;;;;;;;22.15;5.97;;;;;;;35.45;36.90;97487.66;5150496;27;20045;-74
2023/09/13 07:37:57;;;;;;;6.85;4.18;;;;;;;36.07;35.45;97491.16;5150256;27;20476;-72
2023/09/13 07:40:23;;;;;;;7.97;4.22;;;;;;;36.22;35.14;97488.56;5132818;27;20169;-73
2023/09/13 07:42:48;;;;;;;11.10;4.75;;;;;;;36.50;34.89;97481.91;5150129;27;20047;-73
2023/09/13 07:45:13;;;;;;;20.65;4.72;;;;;;;36.40;35.39;97482.66;5150621;27;20019;-72
2023/09/13 07:47:39;;;;;;;11.32;4.53;;;;;;;36.93;34.66;97473.50;5152094;27;20212;-73
2023/09/13 07:50:05;;;;;;;16.60;4.00;;;;;;;36.80;34.16;97473.91;5140727;27;20031;-73
2023/09/13 07:52:30;;;;;;;13.90;5.78;;;;;;;36.77;34.16;97468.84;5150297;27;20038;-73
2023/09/13 07:54:56;;;;;;;7.72;3.88;;;;;;;37.99;31.96;97456.78;5155079;27;20528;-73
2023/09/13 07:57:21;;;;;;;5.53;3.90;;;;;;;38.46;31.49;97459.47;5154328;27;20485;-73
2023/09/13 07:59:47;;;;;;;16.10;5.20;;;;;;;38.29;31.33;97458.84;5153627;27;20038;-74
2023/09/13 08:02:12;;;;;;;21.95;6.00;;;;;;;38.10;31.50;97454.84;5154069;27;20078;-74
2023/09/13 08:04:38;;;;;;;10.82;4.28;;;;;;;38.90;30.50;97455.16;5154267;27;20527;-73
2023/09/13 08:07:04;;;;;;;12.27;4.05;;;;;;;38.84;30.45;97453.47;5155240;27;20031;-74
2023/09/13 08:09:29;;;;;;;10.48;4.20;;;;;;;39.07;30.45;97456.84;5153983;27;20022;-73
2023/09/13 08:11:55;;;;;;;18.58;5.35;;;;;;;39.15;30.75;97457.13;5153780;27;20031;-73
2023/09/13 08:14:20;;;;;;;10.20;4.18;;;;;;;38.91;30.40;97444.78;5154182;27;20142;-73
2023/09/13 08:16:46;;;;;;;16.77;4.75;;;;;;;39.43;30.35;97455.75;5155029;27;20130;-73
2023/09/13 08:19:12;;;;;;;9.75;4.35;;;;;;;39.18;30.13;97445.38;5153818;27;20030;-74
2023/09/13 08:21:38;;;;;;;11.40;4.68;;;;;;;39.30;29.53;97445.09;5153871;27;20031;-73
2023/09/13 08:24:04;;;;;;;17.02;4.82;;;;;;;39.24;30.06;97449.03;5135985;27;20023;-74
2023/09/13 08:26:32;;;;;;;6.05;3.97;;;;;;;39.14;29.61;97438.63;5136536;27;20026;-74
2023/09/13 08:28:58;;;;;;;9.05;3.90;;;;;;;39.55;29.02;97439.47;5153302;27;20027;-74
2023/09/13 08:31:25;;;;;;;9.45;3.78;;;;;;;40.02;28.07;97425.91;5136223;27;20037;-74
2023/09/13 08:33:54;;;;;;;5.63;4.05;;;;;;;40.82;28.21;97437.91;5153478;27;20027;-74
2023/09/13 08:36:20;;;;;;;10.90;4.03;;;;;;;41.72;26.49;97427.03;5140931;27;20027;-74
2023/09/13 08:38:45;;;;;;;7.35;3.70;;;;;;;41.20;25.88;97426.94;5151210;27;20033;-73
2023/09/13 08:41:13;;;;;;;8.23;3.58;;;;;;;41.87;25.91;97412.84;5133372;27;20512;-74
2023/09/13 08:43:39;;;;;;;5.55;3.60;;;;;;;41.62;25.25;97407.50;5131728;27;20493;-73
2023/09/13 08:46:06;;;;;;;6.63;3.72;;;;;;;41.21;25.45;97406.16;5153148;27;20031;-73
2023/09/13 08:48:33;;;;;;;9.50;3.30;;;;;;;42.25;24.78;97404.53;5135836;27;20113;-74
2023/09/13 08:50:59;;;;;;;10.65;4.10;;;;;;;43.47;23.61;97410.03;5135347;27;20031;-74
2023/09/13 08:53:25;;;;;;;6.00;3.50;;;;;;;43.06;23.86;97405.06;5154379;27;20026;-73
2023/09/13 08:55:51;;;;;;;5.10;3.45;;;;;;;43.74;22.98;97398.78;5152976;27;20134;-73
2023/09/13 08:58:18;;;;;;;9.60;3.67;;;;;;;43.30;23.29;97402.09;5141788;27;20099;-74
2023/09/13 09:00:46;;;;;;;7.13;3.85;;;;;;;43.29;22.70;97391.16;5148520;27;20079;-74
2023/09/13 09:03:12;;;;;;;7.80;3.45;;;;;;;43.22;22.97;97400.00;5152601;27;20102;-73
2023/09/13 09:05:39;;;;;;;10.40;3.45;;;;;;;43.50;22.81;97387.66;5152883;27;20528;-73
2023/09/13 09:08:04;;;;;;;6.45;3.80;;;;;;;42.80;23.43;97395.31;5152623;27;20106;-74
2023/09/13 09:10:31;;;;;;;5.65;4.25;;;;;;;42.86;23.01;97390.41;5154088;27;20101;-73
2023/09/13 09:12:58;;;;;;;8.00;3.90;;;;;;;43.01;23.08;97393.06;5152679;27;20034;-73
2023/09/13 09:15:24;;;;;;;3.53;3.22;;;;;;;43.24;22.86;97392.06;5152313;27;20053;-73
2023/09/13 09:17:51;;;;;;;6.25;3.50;;;;;;;43.26;23.04;97391.75;5152795;27;20524;-74
2023/09/13 09:20:18;;;;;;;6.55;3.35;;;;;;;43.51;22.79;97396.97;5152514;27;20417;-73
2023/09/13 09:22:43;;;;;;;6.95;3.67;;;;;;;43.90;22.85;97394.53;5135141;27;20058;-73
2023/09/13 09:25:10;;;;;;;8.07;3.72;;;;;;;44.24;21.94;97391.28;5152693;27;20457;-74
2023/09/13 09:27:38;;;;;;;8.63;3.60;;;;;;;45.03;21.41;97391.78;5152309;27;20026;-74
2023/09/13 09:30:05;;;;;;;6.55;3.58;;;;;;;44.54;22.26;97396.31;5153626;27;20027;-73
2023/09/13 09:32:30;;;;;;;7.95;3.55;;;;;;;44.98;21.35;97389.09;5152134;27;20027;-74
2023/09/13 09:34:59;;;;;;;4.65;3.30;;;;;;;45.25;21.46;97395.44;5143636;27;20030;-73
2023/09/13 09:37:32;;;;;;;9.30;4.72;;;;;;;45.90;20.73;97377.06;5131169;27;20019;-73
2023/09/13 09:39:58;;;;;;;4.78;3.40;;;;;;;45.30;20.80;97380.38;5134806;27;20035;-73
2023/09/13 09:42:24;;;;;;;4.88;3.60;;;;;;;44.37;21.71;97384.81;5152207;27;20083;-73
2023/09/13 09:44:51;;;;;;;6.30;3.50;;;;;;;44.47;21.64;97384.59;5152105;27;20470;-73
2023/09/13 09:47:17;;;;;;;10.00;3.58;;;;;;;44.15;21.77;97382.75;5151978;27;20026;-73
2023/09/13 09:49:52;;;;;;;5.40;3.45;;;;;;;44.76;21.88;97384.22;5153355;27;20040;-73
2023/09/13 09:52:18;;;;;;;8.32;3.72;;;;;;;45.37;21.52;97385.56;5152000;27;20037;-74
2023/09/13 09:54:48;;;;;;;8.05;3.70;;;;;;;44.81;21.08;97371.94;5151845;27;20064;-74
2023/09/13 09:57:25;;;;;;;12.43;3.78;;;;;;;44.99;21.41;97370.97;5134427;27;20553;-74
2023/09/13 09:59:51;;;;;;;7.45;4.30;;;;;;;45.15;21.79;97377.91;5152797;27;20073;-73
2023/09/13 10:02:17;;;;;;;8.32;3.72;;;;;;;46.42;21.16;97378.09;5151601;27;20446;-74
2023/09/13 10:04:47;;;;;;;4.93;3.05;;;;;;;45.24;20.50;97359.84;5152782;27;20397;-73
2023/09/13 10:07:13;;;;;;;5.88;3.40;;;;;;;44.68;22.14;97368.88;5134348;27;20026;-73
2023/09/13 10:09:46;;;;;;;8.18;3.60;;;;;;;44.84;21.75;97355.22;5150910;27;20083;-74
2023/09/13 10:12:13;;;;;;;5.60;3.90;;;;;;;46.40;21.17;97364.22;5134073;27;20029;-73
2023/09/13 10:14:40;;;;;;;5.70;3.10;;;;;;;44.62;20.85;97361.66;5151235;27;20557;-74
2023/09/13 10:17:07;;;;;;;5.20;3.10;;;;;;;43.89;21.58;97350.56;5133981;27;20043;-74
2023/09/13 10:19:33;;;;;;;13.13;3.65;;;;;;;44.72;21.20;97352.13;5134109;27;20091;-74
2023/09/13 10:21:59;;;;;;;8.15;3.55;;;;;;;44.69;21.06;97344.28;5151308;27;20058;-74
2023/09/13 10:24:39;;;;;;;7.20;3.63;;;;;;;44.67;20.94;97349.44;5151397;27;20022;-73
2023/09/13 10:27:09;;;;;;;7.53;3.63;;;;;;;45.68;21.06;97346.84;5152232;27;20079;-74
2023/09/13 10:29:40;;;;;;;6.47;3.47;;;;;;;45.66;20.24;97352.78;5133908;27;20026;-73
2023/09/13 10:32:09;;;;;;;10.43;3.30;;;;;;;45.42;20.66;97349.50;5144585;27;20550;-74
2023/09/13 10:34:35;;;;;;;6.13;3.28;;;;;;;45.89;19.72;97344.25;5130426;27;20558;-74
2023/09/13 10:37:28;;;;;;;8.18;4.20;;;;;;;45.56;19.69;97338.09;5129200;27;20453;-74
2023/09/13 10:40:09;;;;;;;10.23;3.35;;;;;;;45.35;20.57;97339.84;5151018;27;20066;-74
2023/09/13 10:42:35;;;;;;;5.07;3.58;;;;;;;44.93;20.26;97333.53;5150924;27;20474;-74
2023/09/13 10:45:01;;;;;;;10.40;3.75;;;;;;;45.43;19.36;97336.22;5122622;27;20049;-73
2023/09/13 10:47:26;;;;;;;16.65;3.60;;;;;;;44.26;20.20;97335.41;5128655;27;20126;-74
2023/09/13 10:49:52;;;;;;;9.45;3.38;;;;;;;43.29;20.60;97326.34;5144625;27;20023;-74
2023/09/13 10:52:18;;;;;;;9.75;3.30;;;;;;;44.72;20.01;97329.53;5152149;27;20095;-74
2023/09/13 10:54:43;;;;;;;4.65;3.17;;;;;;;44.85;19.68;97327.81;5150679;27;20465;-73
2023/09/13 10:57:10;;;;;;;4.63;3.35;;;;;;;44.54;20.13;97327.72;5151020;27;20046;-73
2023/09/13 10:59:36;;;;;;;5.68;3.50;;;;;;;45.68;19.35;97325.06;5150574;27;20031;-74
2023/09/13 11:02:04;;;;;;;6.65;3.25;;;;;;;46.63;18.87;97328.13;5145623;27;20038;-73
2023/09/13 11:04:31;;;;;;;9.45;3.40;;;;;;;46.34;19.05;97314.56;5131220;27;20066;-74
2023/09/13 11:06:57;;;;;;;8.48;3.08;;;;;;;46.61;18.83;97322.78;5127302;27;20084;-74
2023/09/13 11:09:28;;;;;;;6.50;3.33;;;;;;;47.88;17.75;97319.25;5150817;27;20029;-74
2023/09/13 11:11:59;;;;;;;9.57;3.40;;;;;;;48.03;17.45;97315.81;5150604;27;20023;-74
2023/09/13 11:14:31;;;;;;;6.00;3.05;;;;;;;47.77;18.23;97306.59;5134002;27;20031;-74
2023/09/13 11:17:39;;;;;;;8.55;3.30;;;;;;;48.65;17.69;97313.09;5143904;27;20043;-74
2023/09/13 11:20:35;;;;;;;11.05;3.50;;;;;;;48.16;17.59;97314.75;5148632;27;20493;-73
2023/09/13 11:23:10;;;;;;;8.32;3.22;;;;;;;48.59;17.57;97305.97;5137052;27;20489;-74
2023/09/13 11:25:41;;;;;;;11.43;4.40;;;;;;;48.43;17.86;97312.56;5137455;27;20049;-74